sensor_id;sensor_type;location;lat;lon;timestamp;temperature;humidity
70726;DHT22;58304;53.104;6.022;2022-08-21T00:01:48;14.60;99.90
70726;DHT22;58304;53.104;6.022;2022-08-21T00:04:17;14.60;99.90
70726;DHT22;58304;53.104;6.022;2022-08-21T00:06:43;14.50;99.90
70726;DHT22;58304;53.104;6.022;2022-08-21T00:09:09;14.60;99.90
70726;DHT22;58304;53.104;6.022;2022-08-21T00:11:36;14.60;99.90
70726;DHT22;58304;53.104;6.022;2022-08-21T00:14:04;14.50;99.90
70726;DHT22;58304;53.104;6.022;2022-08-21T00:16:31;14.40;99.90
70726;DHT22;58304;53.104;6.022;2022-08-21T00:18:58;14.50;99.90
70726;DHT22;58304;53.104;6.022;2022-08-21T00:21:23;14.50;99.90
70726;DHT22;58304;53.104;6.022;2022-08-21T00:23:52;14.50;99.90
70726;DHT22;58304;53.104;6.022;2022-08-21T00:33:58;14.40;99.90
70726;DHT22;58304;53.104;6.022;2022-08-21T00:36:24;14.40;99.90
70726;DHT22;58304;53.104;6.022;2022-08-21T00:38:51;14.40;99.90
70726;DHT22;58304;53.104;6.022;2022-08-21T00:41:17;14.30;99.90
70726;DHT22;58304;53.104;6.022;2022-08-21T00:43:46;14.30;99.90
70726;DHT22;58304;53.104;6.022;2022-08-21T00:46:12;14.40;99.90
70726;DHT22;58304;53.104;6.022;2022-08-21T00:48:38;14.40;99.90
70726;DHT22;58304;53.104;6.022;2022-08-21T00:51:11;14.40;99.90
70726;DHT22;58304;53.104;6.022;2022-08-21T00:53:40;14.40;99.90
70726;DHT22;58304;53.104;6.022;2022-08-21T00:56:09;14.40;99.90
70726;DHT22;58304;53.104;6.022;2022-08-21T00:58:39;14.30;99.90
70726;DHT22;58304;53.104;6.022;2022-08-21T01:01:08;14.30;99.90
70726;DHT22;58304;53.104;6.022;2022-08-21T01:03:36;14.30;99.90
70726;DHT22;58304;53.104;6.022;2022-08-21T01:06:03;14.30;99.90
70726;DHT22;58304;53.104;6.022;2022-08-21T01:08:30;14.20;99.90
70726;DHT22;58304;53.104;6.022;2022-08-21T01:10:57;14.10;99.90
70726;DHT22;58304;53.104;6.022;2022-08-21T01:13:26;14.10;99.90
70726;DHT22;58304;53.104;6.022;2022-08-21T01:15:54;14.10;99.90
70726;DHT22;58304;53.104;6.022;2022-08-21T01:18:21;14.10;99.90
70726;DHT22;58304;53.104;6.022;2022-08-21T01:21:06;14.20;99.90
70726;DHT22;58304;53.104;6.022;2022-08-21T01:23:34;14.10;99.90
70726;DHT22;58304;53.104;6.022;2022-08-21T01:26:01;14.10;99.90
70726;DHT22;58304;53.104;6.022;2022-08-21T01:28:28;14.10;99.90
70726;DHT22;58304;53.104;6.022;2022-08-21T01:30:56;14.10;99.90
70726;DHT22;58304;53.104;6.022;2022-08-21T01:33:24;14.10;99.90
70726;DHT22;58304;53.104;6.022;2022-08-21T01:35:49;14.10;99.90
70726;DHT22;58304;53.104;6.022;2022-08-21T01:38:15;14.10;99.90
70726;DHT22;58304;53.104;6.022;2022-08-21T01:40:41;14.10;99.90
70726;DHT22;58304;53.104;6.022;2022-08-21T01:43:07;14.10;99.90
70726;DHT22;58304;53.104;6.022;2022-08-21T01:45:33;14.10;99.90
70726;DHT22;58304;53.104;6.022;2022-08-21T01:47:58;14.10;99.90
70726;DHT22;58304;53.104;6.022;2022-08-21T01:50:24;14.10;99.90
70726;DHT22;58304;53.104;6.022;2022-08-21T01:52:50;14.10;99.90
70726;DHT22;58304;53.104;6.022;2022-08-21T01:55:20;14.20;99.90
70726;DHT22;58304;53.104;6.022;2022-08-21T01:57:47;14.20;99.90
70726;DHT22;58304;53.104;6.022;2022-08-21T02:00:15;14.20;99.90
70726;DHT22;58304;53.104;6.022;2022-08-21T02:02:42;14.20;99.90
70726;DHT22;58304;53.104;6.022;2022-08-21T02:05:10;14.20;99.90
70726;DHT22;58304;53.104;6.022;2022-08-21T02:07:48;14.20;99.90
70726;DHT22;58304;53.104;6.022;2022-08-21T02:10:20;14.20;99.90
70726;DHT22;58304;53.104;6.022;2022-08-21T02:12:46;14.30;99.90
70726;DHT22;58304;53.104;6.022;2022-08-21T02:15:11;14.20;99.90
70726;DHT22;58304;53.104;6.022;2022-08-21T02:17:41;14.20;99.90
70726;DHT22;58304;53.104;6.022;2022-08-21T02:20:08;14.20;99.90
70726;DHT22;58304;53.104;6.022;2022-08-21T02:22:33;14.20;99.90
70726;DHT22;58304;53.104;6.022;2022-08-21T02:24:59;14.10;99.90
70726;DHT22;58304;53.104;6.022;2022-08-21T02:27:25;14.10;99.90
70726;DHT22;58304;53.104;6.022;2022-08-21T02:29:51;14.10;99.90
70726;DHT22;58304;53.104;6.022;2022-08-21T02:32:16;14.10;99.90
70726;DHT22;58304;53.104;6.022;2022-08-21T02:34:45;14.10;99.90
70726;DHT22;58304;53.104;6.022;2022-08-21T02:37:12;14.10;99.90
70726;DHT22;58304;53.104;6.022;2022-08-21T02:39:37;14.10;99.90
70726;DHT22;58304;53.104;6.022;2022-08-21T02:42:03;14.10;99.90
70726;DHT22;58304;53.104;6.022;2022-08-21T02:44:29;14.10;99.90
70726;DHT22;58304;53.104;6.022;2022-08-21T02:46:54;14.10;99.90
70726;DHT22;58304;53.104;6.022;2022-08-21T02:49:20;14.10;99.90
70726;DHT22;58304;53.104;6.022;2022-08-21T02:51:46;14.10;99.90
70726;DHT22;58304;53.104;6.022;2022-08-21T02:54:12;14.20;99.90
70726;DHT22;58304;53.104;6.022;2022-08-21T02:56:37;14.10;99.90
70726;DHT22;58304;53.104;6.022;2022-08-21T02:59:03;14.10;99.90
70726;DHT22;58304;53.104;6.022;2022-08-21T03:01:29;14.10;99.90
70726;DHT22;58304;53.104;6.022;2022-08-21T03:03:54;14.00;99.90
70726;DHT22;58304;53.104;6.022;2022-08-21T03:06:22;14.00;99.90
70726;DHT22;58304;53.104;6.022;2022-08-21T03:08:50;14.00;99.90
70726;DHT22;58304;53.104;6.022;2022-08-21T03:11:17;14.00;99.90
70726;DHT22;58304;53.104;6.022;2022-08-21T03:13:45;14.00;99.90
70726;DHT22;58304;53.104;6.022;2022-08-21T03:16:11;14.00;99.90
70726;DHT22;58304;53.104;6.022;2022-08-21T03:18:37;14.00;99.90
70726;DHT22;58304;53.104;6.022;2022-08-21T03:21:06;14.00;99.90
70726;DHT22;58304;53.104;6.022;2022-08-21T03:23:32;14.00;99.90
70726;DHT22;58304;53.104;6.022;2022-08-21T03:25:59;13.90;99.90
70726;DHT22;58304;53.104;6.022;2022-08-21T03:28:27;13.90;99.90
70726;DHT22;58304;53.104;6.022;2022-08-21T03:30:54;13.90;99.90
70726;DHT22;58304;53.104;6.022;2022-08-21T03:33:21;13.90;99.90
70726;DHT22;58304;53.104;6.022;2022-08-21T03:36:02;13.90;99.90
70726;DHT22;58304;53.104;6.022;2022-08-21T03:38:31;13.90;99.90
70726;DHT22;58304;53.104;6.022;2022-08-21T03:40:59;13.90;99.90
70726;DHT22;58304;53.104;6.022;2022-08-21T03:43:25;13.80;99.90
70726;DHT22;58304;53.104;6.022;2022-08-21T03:45:52;13.80;99.90
70726;DHT22;58304;53.104;6.022;2022-08-21T03:48:19;13.80;99.90
70726;DHT22;58304;53.104;6.022;2022-08-21T03:50:45;13.80;99.90
70726;DHT22;58304;53.104;6.022;2022-08-21T03:53:14;13.80;99.90
70726;DHT22;58304;53.104;6.022;2022-08-21T03:55:40;13.80;99.90
70726;DHT22;58304;53.104;6.022;2022-08-21T03:58:06;13.80;99.90
70726;DHT22;58304;53.104;6.022;2022-08-21T04:00:35;13.80;99.90
70726;DHT22;58304;53.104;6.022;2022-08-21T04:03:00;13.80;99.90
70726;DHT22;58304;53.104;6.022;2022-08-21T04:05:26;13.90;99.90
70726;DHT22;58304;53.104;6.022;2022-08-21T04:08:01;13.90;99.90
70726;DHT22;58304;53.104;6.022;2022-08-21T04:10:28;13.90;99.90
70726;DHT22;58304;53.104;6.022;2022-08-21T04:12:55;13.90;99.90
70726;DHT22;58304;53.104;6.022;2022-08-21T04:15:24;13.90;99.90
70726;DHT22;58304;53.104;6.022;2022-08-21T04:17:50;13.90;99.90
70726;DHT22;58304;53.104;6.022;2022-08-21T04:20:17;13.80;99.90
70726;DHT22;58304;53.104;6.022;2022-08-21T04:22:44;13.80;99.90
70726;DHT22;58304;53.104;6.022;2022-08-21T04:25:11;13.80;99.90
70726;DHT22;58304;53.104;6.022;2022-08-21T04:27:37;13.70;99.90
70726;DHT22;58304;53.104;6.022;2022-08-21T04:30:03;13.80;99.90
70726;DHT22;58304;53.104;6.022;2022-08-21T04:32:29;13.70;99.90
70726;DHT22;58304;53.104;6.022;2022-08-21T04:35:03;13.80;99.90
70726;DHT22;58304;53.104;6.022;2022-08-21T04:37:29;13.70;99.90
70726;DHT22;58304;53.104;6.022;2022-08-21T04:39:58;13.70;99.90
70726;DHT22;58304;53.104;6.022;2022-08-21T04:42:26;13.70;99.90
70726;DHT22;58304;53.104;6.022;2022-08-21T04:44:53;13.70;99.90
70726;DHT22;58304;53.104;6.022;2022-08-21T04:47:19;13.70;99.90
70726;DHT22;58304;53.104;6.022;2022-08-21T04:49:45;13.80;99.90
70726;DHT22;58304;53.104;6.022;2022-08-21T04:52:11;13.80;99.90
70726;DHT22;58304;53.104;6.022;2022-08-21T04:54:39;13.80;99.90
70726;DHT22;58304;53.104;6.022;2022-08-21T04:57:07;13.90;99.90
70726;DHT22;58304;53.104;6.022;2022-08-21T04:59:46;14.00;99.90
70726;DHT22;58304;53.104;6.022;2022-08-21T05:02:12;14.00;99.90
70726;DHT22;58304;53.104;6.022;2022-08-21T05:04:46;14.00;99.90
70726;DHT22;58304;53.104;6.022;2022-08-21T05:07:20;14.10;99.90
70726;DHT22;58304;53.104;6.022;2022-08-21T05:09:48;14.20;99.90
70726;DHT22;58304;53.104;6.022;2022-08-21T05:12:14;14.10;99.90
70726;DHT22;58304;53.104;6.022;2022-08-21T05:14:40;14.20;99.90
70726;DHT22;58304;53.104;6.022;2022-08-21T05:17:09;14.30;99.90
70726;DHT22;58304;53.104;6.022;2022-08-21T05:19:34;14.30;99.90
70726;DHT22;58304;53.104;6.022;2022-08-21T05:22:00;14.40;99.90
70726;DHT22;58304;53.104;6.022;2022-08-21T05:24:27;14.50;99.90
70726;DHT22;58304;53.104;6.022;2022-08-21T05:26:52;14.60;99.90
70726;DHT22;58304;53.104;6.022;2022-08-21T05:29:18;14.70;99.90
70726;DHT22;58304;53.104;6.022;2022-08-21T05:31:44;14.70;99.90
70726;DHT22;58304;53.104;6.022;2022-08-21T05:34:13;14.70;99.90
70726;DHT22;58304;53.104;6.022;2022-08-21T05:36:38;14.90;99.90
70726;DHT22;58304;53.104;6.022;2022-08-21T05:39:06;15.10;99.90
70726;DHT22;58304;53.104;6.022;2022-08-21T05:41:32;15.70;99.90
70726;DHT22;58304;53.104;6.022;2022-08-21T05:43:57;16.40;99.90
70726;DHT22;58304;53.104;6.022;2022-08-21T05:46:23;17.00;99.90
70726;DHT22;58304;53.104;6.022;2022-08-21T05:48:51;17.30;99.90
70726;DHT22;58304;53.104;6.022;2022-08-21T05:51:17;17.40;99.90
70726;DHT22;58304;53.104;6.022;2022-08-21T05:53:45;17.70;99.90
70726;DHT22;58304;53.104;6.022;2022-08-21T05:56:11;17.70;99.90
70726;DHT22;58304;53.104;6.022;2022-08-21T05:58:37;18.00;99.90
70726;DHT22;58304;53.104;6.022;2022-08-21T06:01:04;18.20;99.90
70726;DHT22;58304;53.104;6.022;2022-08-21T06:03:33;18.70;99.90
70726;DHT22;58304;53.104;6.022;2022-08-21T06:06:01;19.20;99.90
70726;DHT22;58304;53.104;6.022;2022-08-21T06:08:27;19.30;99.90
70726;DHT22;58304;53.104;6.022;2022-08-21T06:10:55;19.50;99.90
70726;DHT22;58304;53.104;6.022;2022-08-21T06:13:22;19.80;99.90
70726;DHT22;58304;53.104;6.022;2022-08-21T06:15:49;20.30;99.90
70726;DHT22;58304;53.104;6.022;2022-08-21T06:18:15;21.10;99.90
70726;DHT22;58304;53.104;6.022;2022-08-21T06:20:41;21.70;99.90
70726;DHT22;58304;53.104;6.022;2022-08-21T06:23:07;22.40;99.90
70726;DHT22;58304;53.104;6.022;2022-08-21T06:25:33;23.10;99.90
70726;DHT22;58304;53.104;6.022;2022-08-21T06:28:07;23.80;99.90
70726;DHT22;58304;53.104;6.022;2022-08-21T06:30:36;24.70;99.90
70726;DHT22;58304;53.104;6.022;2022-08-21T06:33:02;25.40;99.90
70726;DHT22;58304;53.104;6.022;2022-08-21T06:35:28;25.70;99.90
70726;DHT22;58304;53.104;6.022;2022-08-21T06:37:55;25.40;99.90
70726;DHT22;58304;53.104;6.022;2022-08-21T06:40:23;24.50;99.90
70726;DHT22;58304;53.104;6.022;2022-08-21T06:42:48;23.60;99.90
70726;DHT22;58304;53.104;6.022;2022-08-21T06:45:14;23.10;99.90
70726;DHT22;58304;53.104;6.022;2022-08-21T06:47:40;22.60;99.90
70726;DHT22;58304;53.104;6.022;2022-08-21T06:50:06;22.40;99.90
70726;DHT22;58304;53.104;6.022;2022-08-21T06:52:34;22.80;99.90
70726;DHT22;58304;53.104;6.022;2022-08-21T06:55:00;23.70;99.90
70726;DHT22;58304;53.104;6.022;2022-08-21T06:57:25;24.90;99.90
70726;DHT22;58304;53.104;6.022;2022-08-21T06:59:51;26.50;99.90
70726;DHT22;58304;53.104;6.022;2022-08-21T07:02:17;27.40;99.90
70726;DHT22;58304;53.104;6.022;2022-08-21T07:04:43;28.60;99.90
70726;DHT22;58304;53.104;6.022;2022-08-21T07:07:09;28.70;99.90
70726;DHT22;58304;53.104;6.022;2022-08-21T07:09:35;28.10;99.90
70726;DHT22;58304;53.104;6.022;2022-08-21T07:12:02;28.00;99.90
70726;DHT22;58304;53.104;6.022;2022-08-21T07:14:27;28.10;99.90
70726;DHT22;58304;53.104;6.022;2022-08-21T07:16:53;28.90;99.90
70726;DHT22;58304;53.104;6.022;2022-08-21T07:19:19;29.50;99.90
70726;DHT22;58304;53.104;6.022;2022-08-21T07:21:45;30.00;98.70
70726;DHT22;58304;53.104;6.022;2022-08-21T07:24:11;30.80;97.40
70726;DHT22;58304;53.104;6.022;2022-08-21T07:26:37;31.70;96.00
70726;DHT22;58304;53.104;6.022;2022-08-21T07:29:04;32.00;94.40
70726;DHT22;58304;53.104;6.022;2022-08-21T07:31:30;32.60;92.80
70726;DHT22;58304;53.104;6.022;2022-08-21T07:33:56;32.90;91.60
70726;DHT22;58304;53.104;6.022;2022-08-21T07:36:21;33.30;90.90
70726;DHT22;58304;53.104;6.022;2022-08-21T07:38:47;33.00;88.90
70726;DHT22;58304;53.104;6.022;2022-08-21T07:41:22;33.80;87.50
70726;DHT22;58304;53.104;6.022;2022-08-21T07:43:47;33.90;84.30
70726;DHT22;58304;53.104;6.022;2022-08-21T07:46:13;34.20;82.50
70726;DHT22;58304;53.104;6.022;2022-08-21T07:48:39;34.60;81.30
70726;DHT22;58304;53.104;6.022;2022-08-21T07:51:11;35.20;79.60
70726;DHT22;58304;53.104;6.022;2022-08-21T07:53:37;35.40;76.70
70726;DHT22;58304;53.104;6.022;2022-08-21T07:56:04;35.00;77.30
70726;DHT22;58304;53.104;6.022;2022-08-21T07:58:31;35.50;76.10
70726;DHT22;58304;53.104;6.022;2022-08-21T08:00:56;35.40;74.30
70726;DHT22;58304;53.104;6.022;2022-08-21T08:03:22;35.00;74.40
70726;DHT22;58304;53.104;6.022;2022-08-21T08:05:48;34.80;75.20
70726;DHT22;58304;53.104;6.022;2022-08-21T08:08:13;35.20;74.40
70726;DHT22;58304;53.104;6.022;2022-08-21T08:10:40;35.60;73.60
70726;DHT22;58304;53.104;6.022;2022-08-21T08:13:05;36.20;71.90
70726;DHT22;58304;53.104;6.022;2022-08-21T08:15:31;36.50;71.30
70726;DHT22;58304;53.104;6.022;2022-08-21T08:17:57;36.60;70.50
70726;DHT22;58304;53.104;6.022;2022-08-21T08:20:23;37.10;69.20
70726;DHT22;58304;53.104;6.022;2022-08-21T08:22:51;37.40;68.20
70726;DHT22;58304;53.104;6.022;2022-08-21T08:25:17;37.90;66.60
70726;DHT22;58304;53.104;6.022;2022-08-21T08:27:43;37.90;67.30
70726;DHT22;58304;53.104;6.022;2022-08-21T08:30:14;38.00;66.70
70726;DHT22;58304;53.104;6.022;2022-08-21T08:32:40;37.90;65.50
70726;DHT22;58304;53.104;6.022;2022-08-21T08:35:07;37.90;64.80
70726;DHT22;58304;53.104;6.022;2022-08-21T08:37:36;37.30;64.20
70726;DHT22;58304;53.104;6.022;2022-08-21T08:40:17;36.80;64.60
70726;DHT22;58304;53.104;6.022;2022-08-21T08:42:44;36.30;64.40
70726;DHT22;58304;53.104;6.022;2022-08-21T08:45:16;35.50;65.80
70726;DHT22;58304;53.104;6.022;2022-08-21T08:47:49;34.90;67.30
70726;DHT22;58304;53.104;6.022;2022-08-21T08:50:24;34.10;66.40
70726;DHT22;58304;53.104;6.022;2022-08-21T08:53:02;33.50;67.80
70726;DHT22;58304;53.104;6.022;2022-08-21T08:55:43;32.90;69.50
70726;DHT22;58304;53.104;6.022;2022-08-21T09:00:52;33.40;70.20
70726;DHT22;58304;53.104;6.022;2022-08-21T09:03:20;32.40;70.50
70726;DHT22;58304;53.104;6.022;2022-08-21T09:05:50;31.80;70.20
70726;DHT22;58304;53.104;6.022;2022-08-21T09:11:10;31.80;75.10
70726;DHT22;58304;53.104;6.022;2022-08-21T09:16:24;33.20;72.10
70726;DHT22;58304;53.104;6.022;2022-08-21T09:19:04;32.80;71.30
70726;DHT22;58304;53.104;6.022;2022-08-21T09:22:06;32.00;70.90
70726;DHT22;58304;53.104;6.022;2022-08-21T09:25:00;31.40;71.30
70726;DHT22;58304;53.104;6.022;2022-08-21T09:27:28;30.20;74.10
70726;DHT22;58304;53.104;6.022;2022-08-21T09:29:55;29.80;74.20
70726;DHT22;58304;53.104;6.022;2022-08-21T09:32:27;30.10;75.40
70726;DHT22;58304;53.104;6.022;2022-08-21T09:35:15;31.00;75.80
70726;DHT22;58304;53.104;6.022;2022-08-21T09:37:58;31.50;75.00
70726;DHT22;58304;53.104;6.022;2022-08-21T09:40:45;30.90;72.90
70726;DHT22;58304;53.104;6.022;2022-08-21T09:45:38;29.70;73.70
70726;DHT22;58304;53.104;6.022;2022-08-21T09:48:13;29.00;74.50
70726;DHT22;58304;53.104;6.022;2022-08-21T09:50:40;28.20;77.20
70726;DHT22;58304;53.104;6.022;2022-08-21T09:53:21;27.40;78.40
70726;DHT22;58304;53.104;6.022;2022-08-21T09:55:55;27.20;80.20
70726;DHT22;58304;53.104;6.022;2022-08-21T09:58:46;27.60;80.80
70726;DHT22;58304;53.104;6.022;2022-08-21T10:01:17;27.40;81.30
70726;DHT22;58304;53.104;6.022;2022-08-21T10:03:44;27.10;81.30
70726;DHT22;58304;53.104;6.022;2022-08-21T10:06:25;26.50;81.30
70726;DHT22;58304;53.104;6.022;2022-08-21T10:09:07;26.50;84.40
70726;DHT22;58304;53.104;6.022;2022-08-21T10:11:34;27.80;84.00
70726;DHT22;58304;53.104;6.022;2022-08-21T10:14:06;28.40;81.70
70726;DHT22;58304;53.104;6.022;2022-08-21T10:19:37;27.80;80.50
70726;DHT22;58304;53.104;6.022;2022-08-21T10:25:12;27.90;81.90
70726;DHT22;58304;53.104;6.022;2022-08-21T10:36:14;29.60;77.30
70726;DHT22;58304;53.104;6.022;2022-08-21T10:52:39;31.50;73.10
70726;DHT22;58304;53.104;6.022;2022-08-21T10:55:19;31.80;73.60
70726;DHT22;58304;53.104;6.022;2022-08-21T11:00:49;33.00;71.40
70726;DHT22;58304;53.104;6.022;2022-08-21T11:03:32;33.30;67.30
70726;DHT22;58304;53.104;6.022;2022-08-21T11:08:44;32.50;67.90
70726;DHT22;58304;53.104;6.022;2022-08-21T11:11:23;31.50;69.50
70726;DHT22;58304;53.104;6.022;2022-08-21T11:14:39;30.80;71.10
70726;DHT22;58304;53.104;6.022;2022-08-21T11:17:13;29.60;72.20
70726;DHT22;58304;53.104;6.022;2022-08-21T11:20:03;28.50;74.30
70726;DHT22;58304;53.104;6.022;2022-08-21T11:25:26;27.50;77.10
70726;DHT22;58304;53.104;6.022;2022-08-21T11:28:29;27.20;78.60
70726;DHT22;58304;53.104;6.022;2022-08-21T11:36:57;29.70;75.60
70726;DHT22;58304;53.104;6.022;2022-08-21T11:42:28;30.40;73.30
70726;DHT22;58304;53.104;6.022;2022-08-21T11:50:18;29.50;72.20
70726;DHT22;58304;53.104;6.022;2022-08-21T11:55:38;29.20;73.50
70726;DHT22;58304;53.104;6.022;2022-08-21T11:58:23;29.10;72.70
70726;DHT22;58304;53.104;6.022;2022-08-21T12:00:58;28.80;72.70
70726;DHT22;58304;53.104;6.022;2022-08-21T12:03:41;28.40;74.50
70726;DHT22;58304;53.104;6.022;2022-08-21T12:06:10;28.20;72.50
70726;DHT22;58304;53.104;6.022;2022-08-21T12:08:41;28.10;72.30
70726;DHT22;58304;53.104;6.022;2022-08-21T12:16:38;27.60;73.30
70726;DHT22;58304;53.104;6.022;2022-08-21T12:19:08;27.80;74.00
70726;DHT22;58304;53.104;6.022;2022-08-21T12:21:49;27.90;74.50
70726;DHT22;58304;53.104;6.022;2022-08-21T12:26:55;27.70;74.80
70726;DHT22;58304;53.104;6.022;2022-08-21T12:29:31;27.70;75.00
70726;DHT22;58304;53.104;6.022;2022-08-21T12:34:41;27.30;75.60
70726;DHT22;58304;53.104;6.022;2022-08-21T12:37:30;27.10;76.90
70726;DHT22;58304;53.104;6.022;2022-08-21T12:40:01;27.00;78.60
70726;DHT22;58304;53.104;6.022;2022-08-21T12:42:37;26.80;78.50
70726;DHT22;58304;53.104;6.022;2022-08-21T12:45:30;26.50;79.70
70726;DHT22;58304;53.104;6.022;2022-08-21T12:48:00;26.50;81.00
70726;DHT22;58304;53.104;6.022;2022-08-21T12:50:56;26.50;80.80
70726;DHT22;58304;53.104;6.022;2022-08-21T12:53:37;26.60;82.40
70726;DHT22;58304;53.104;6.022;2022-08-21T12:56:09;26.60;81.50
70726;DHT22;58304;53.104;6.022;2022-08-21T12:58:35;26.60;80.90
70726;DHT22;58304;53.104;6.022;2022-08-21T13:01:17;26.50;80.80
70726;DHT22;58304;53.104;6.022;2022-08-21T13:03:46;26.50;82.30
70726;DHT22;58304;53.104;6.022;2022-08-21T13:06:17;26.60;82.30
70726;DHT22;58304;53.104;6.022;2022-08-21T13:08:45;26.50;83.30
70726;DHT22;58304;53.104;6.022;2022-08-21T13:11:14;26.40;82.20
70726;DHT22;58304;53.104;6.022;2022-08-21T13:13:42;26.20;80.10
70726;DHT22;58304;53.104;6.022;2022-08-21T13:16:09;26.20;80.10
70726;DHT22;58304;53.104;6.022;2022-08-21T13:18:51;26.10;80.10
70726;DHT22;58304;53.104;6.022;2022-08-21T13:21:19;26.20;80.50
70726;DHT22;58304;53.104;6.022;2022-08-21T13:23:45;26.30;80.50
70726;DHT22;58304;53.104;6.022;2022-08-21T13:26:18;26.80;80.60
70726;DHT22;58304;53.104;6.022;2022-08-21T13:28:45;27.30;80.30
70726;DHT22;58304;53.104;6.022;2022-08-21T13:31:17;27.80;79.20
70726;DHT22;58304;53.104;6.022;2022-08-21T13:33:43;28.20;78.00
70726;DHT22;58304;53.104;6.022;2022-08-21T13:38:37;28.70;78.80
70726;DHT22;58304;53.104;6.022;2022-08-21T13:41:26;29.10;75.60
70726;DHT22;58304;53.104;6.022;2022-08-21T13:44:19;29.00;76.00
70726;DHT22;58304;53.104;6.022;2022-08-21T13:46:44;29.50;74.00
70726;DHT22;58304;53.104;6.022;2022-08-21T13:49:14;29.50;74.60
70726;DHT22;58304;53.104;6.022;2022-08-21T13:51:42;29.70;75.00
70726;DHT22;58304;53.104;6.022;2022-08-21T13:54:34;29.80;73.00
70726;DHT22;58304;53.104;6.022;2022-08-21T13:57:00;29.50;71.50
70726;DHT22;58304;53.104;6.022;2022-08-21T13:59:36;29.30;72.60
70726;DHT22;58304;53.104;6.022;2022-08-21T14:02:18;28.90;75.00
70726;DHT22;58304;53.104;6.022;2022-08-21T14:04:57;29.00;76.50
70726;DHT22;58304;53.104;6.022;2022-08-21T14:07:38;29.10;74.10
70726;DHT22;58304;53.104;6.022;2022-08-21T14:10:14;29.00;76.20
70726;DHT22;58304;53.104;6.022;2022-08-21T14:13:01;28.80;76.40
70726;DHT22;58304;53.104;6.022;2022-08-21T14:15:30;28.80;74.30
70726;DHT22;58304;53.104;6.022;2022-08-21T14:20:37;28.70;75.20
70726;DHT22;58304;53.104;6.022;2022-08-21T14:23:05;28.70;75.00
70726;DHT22;58304;53.104;6.022;2022-08-21T14:25:39;28.70;76.10
70726;DHT22;58304;53.104;6.022;2022-08-21T14:30:40;28.90;74.50
70726;DHT22;58304;53.104;6.022;2022-08-21T14:33:18;28.60;76.70
70726;DHT22;58304;53.104;6.022;2022-08-21T14:35:45;28.60;76.30
70726;DHT22;58304;53.104;6.022;2022-08-21T14:38:18;28.30;76.70
70726;DHT22;58304;53.104;6.022;2022-08-21T14:40:47;28.10;77.30
70726;DHT22;58304;53.104;6.022;2022-08-21T14:43:13;28.00;77.10
70726;DHT22;58304;53.104;6.022;2022-08-21T14:45:39;27.90;77.30
70726;DHT22;58304;53.104;6.022;2022-08-21T14:48:06;27.70;77.60
70726;DHT22;58304;53.104;6.022;2022-08-21T14:50:32;27.80;77.80
70726;DHT22;58304;53.104;6.022;2022-08-21T14:53:01;27.90;78.40
70726;DHT22;58304;53.104;6.022;2022-08-21T14:55:27;27.90;78.20
70726;DHT22;58304;53.104;6.022;2022-08-21T14:57:54;27.80;78.00
70726;DHT22;58304;53.104;6.022;2022-08-21T15:00:23;27.80;75.10
70726;DHT22;58304;53.104;6.022;2022-08-21T15:02:50;27.80;74.40
70726;DHT22;58304;53.104;6.022;2022-08-21T15:05:17;28.10;73.40
70726;DHT22;58304;53.104;6.022;2022-08-21T15:07:45;28.10;74.30
70726;DHT22;58304;53.104;6.022;2022-08-21T15:10:11;28.10;75.90
70726;DHT22;58304;53.104;6.022;2022-08-21T15:12:38;27.80;76.30
70726;DHT22;58304;53.104;6.022;2022-08-21T15:15:05;27.20;77.90
70726;DHT22;58304;53.104;6.022;2022-08-21T15:17:31;27.00;78.80
70726;DHT22;58304;53.104;6.022;2022-08-21T15:19:57;26.90;79.70
70726;DHT22;58304;53.104;6.022;2022-08-21T15:22:22;26.90;80.20
70726;DHT22;58304;53.104;6.022;2022-08-21T15:24:48;26.80;81.10
70726;DHT22;58304;53.104;6.022;2022-08-21T15:27:16;27.00;81.00
70726;DHT22;58304;53.104;6.022;2022-08-21T15:29:43;26.70;81.00
70726;DHT22;58304;53.104;6.022;2022-08-21T15:32:38;26.50;81.60
70726;DHT22;58304;53.104;6.022;2022-08-21T15:35:06;26.60;82.30
70726;DHT22;58304;53.104;6.022;2022-08-21T15:37:32;26.40;82.50
70726;DHT22;58304;53.104;6.022;2022-08-21T15:39:57;26.30;82.50
70726;DHT22;58304;53.104;6.022;2022-08-21T15:42:24;26.20;82.60
70726;DHT22;58304;53.104;6.022;2022-08-21T15:44:57;26.20;82.70
70726;DHT22;58304;53.104;6.022;2022-08-21T15:47:32;26.40;82.20
70726;DHT22;58304;53.104;6.022;2022-08-21T15:50:02;26.30;81.50
70726;DHT22;58304;53.104;6.022;2022-08-21T15:52:28;26.10;81.90
70726;DHT22;58304;53.104;6.022;2022-08-21T15:54:54;26.30;82.30
70726;DHT22;58304;53.104;6.022;2022-08-21T15:57:22;25.80;82.60
70726;DHT22;58304;53.104;6.022;2022-08-21T15:59:51;25.70;83.70
70726;DHT22;58304;53.104;6.022;2022-08-21T16:02:22;25.70;84.80
70726;DHT22;58304;53.104;6.022;2022-08-21T16:04:48;25.70;84.80
70726;DHT22;58304;53.104;6.022;2022-08-21T16:07:14;25.70;84.50
70726;DHT22;58304;53.104;6.022;2022-08-21T16:09:40;25.60;83.90
70726;DHT22;58304;53.104;6.022;2022-08-21T16:12:06;25.70;84.20
70726;DHT22;58304;53.104;6.022;2022-08-21T16:14:34;25.40;85.00
70726;DHT22;58304;53.104;6.022;2022-08-21T16:17:03;25.30;85.00
70726;DHT22;58304;53.104;6.022;2022-08-21T16:19:29;25.10;84.90
70726;DHT22;58304;53.104;6.022;2022-08-21T16:21:57;25.00;85.20
70726;DHT22;58304;53.104;6.022;2022-08-21T16:24:23;25.00;85.00
70726;DHT22;58304;53.104;6.022;2022-08-21T16:26:49;25.00;84.80
70726;DHT22;58304;53.104;6.022;2022-08-21T16:29:15;24.90;84.50
70726;DHT22;58304;53.104;6.022;2022-08-21T16:31:41;24.90;84.20
70726;DHT22;58304;53.104;6.022;2022-08-21T16:34:11;24.80;84.50
70726;DHT22;58304;53.104;6.022;2022-08-21T16:36:38;24.90;84.30
70726;DHT22;58304;53.104;6.022;2022-08-21T16:39:03;24.60;84.30
70726;DHT22;58304;53.104;6.022;2022-08-21T16:41:33;24.40;84.10
70726;DHT22;58304;53.104;6.022;2022-08-21T16:43:59;24.40;83.80
70726;DHT22;58304;53.104;6.022;2022-08-21T16:46:27;24.20;84.80
70726;DHT22;58304;53.104;6.022;2022-08-21T16:48:54;24.10;85.00
70726;DHT22;58304;53.104;6.022;2022-08-21T16:51:19;24.20;85.10
70726;DHT22;58304;53.104;6.022;2022-08-21T16:53:45;24.00;85.00
70726;DHT22;58304;53.104;6.022;2022-08-21T16:56:12;24.10;84.70
70726;DHT22;58304;53.104;6.022;2022-08-21T16:58:41;24.00;84.60
70726;DHT22;58304;53.104;6.022;2022-08-21T17:01:12;23.90;85.00
70726;DHT22;58304;53.104;6.022;2022-08-21T17:03:59;23.60;85.20
70726;DHT22;58304;53.104;6.022;2022-08-21T17:06:25;23.40;86.40
70726;DHT22;58304;53.104;6.022;2022-08-21T17:08:51;23.20;86.50
70726;DHT22;58304;53.104;6.022;2022-08-21T17:11:21;23.10;86.90
70726;DHT22;58304;53.104;6.022;2022-08-21T17:13:48;22.90;87.20
70726;DHT22;58304;53.104;6.022;2022-08-21T17:16:21;22.80;87.90